createdAt,value
2022-07-29T00:00:51.900Z,54.18
2022-07-29T00:02:53.520Z,53.37
2022-07-29T00:04:55.091Z,53.15
2022-07-29T00:06:56.603Z,52.59
2022-07-29T00:08:58.190Z,53.03
2022-07-29T00:10:59.747Z,53.14
2022-07-29T00:13:02.747Z,53.70
2022-07-29T00:15:04.911Z,53.87
2022-07-29T00:17:06.454Z,54.98
2022-07-29T00:19:08.084Z,54.40
2022-07-29T00:21:09.697Z,53.97
2022-07-29T00:23:13.778Z,54.30
2022-07-29T00:25:15.340Z,54.78
2022-07-29T00:27:16.895Z,55.89
2022-07-29T00:29:35.510Z,56.04
2022-07-29T00:31:37.260Z,56.28
2022-07-29T00:33:38.790Z,57.03
2022-07-29T00:35:40.273Z,56.96
2022-07-29T00:37:41.802Z,56.96
2022-07-29T00:39:43.291Z,57.66
2022-07-29T00:41:44.790Z,58.32
2022-07-29T00:43:46.426Z,57.72
2022-07-29T00:45:49.319Z,58.82
2022-07-29T00:47:50.823Z,59.30
2022-07-29T00:49:52.325Z,59.06
2022-07-29T00:51:53.804Z,60.02
2022-07-29T00:53:55.341Z,59.56
2022-07-29T00:55:57.090Z,59.87
2022-07-29T00:57:58.672Z,59.71
2022-07-29T01:00:00.234Z,60.33
2022-07-29T01:02:03.247Z,61.19
2022-07-29T01:04:05.091Z,61.82
2022-07-29T01:06:06.555Z,61.76
2022-07-29T01:08:08.036Z,61.76
2022-07-29T01:10:10.873Z,61.78
2022-07-29T01:12:12.429Z,61.40
2022-07-29T01:14:14.361Z,61.38
2022-07-29T01:16:17.125Z,60.28
2022-07-29T01:18:22.254Z,60.55
2022-07-29T01:20:25.492Z,60.18
2022-07-29T01:22:36.706Z,61.31
2022-07-29T01:24:41.155Z,61.56
2022-07-29T01:26:43.612Z,62.42
2022-07-29T01:28:50.805Z,63.85
2022-07-29T01:30:52.834Z,63.98
2022-07-29T01:32:55.621Z,63.69
2022-07-29T01:34:58.805Z,63.53
2022-07-29T01:37:02.387Z,62.66
2022-07-29T01:39:06.373Z,64.22
2022-07-29T01:41:08.475Z,62.65
2022-07-29T01:43:10.687Z,62.65
2022-07-29T01:45:15.521Z,63.11
2022-07-29T01:47:18.731Z,64.95
2022-07-29T01:49:21.754Z,63.58
2022-07-29T01:51:25.138Z,65.13
2022-07-29T01:53:28.663Z,64.68
2022-07-29T01:55:39.868Z,63.15
2022-07-29T01:57:41.677Z,64.77
2022-07-29T01:59:43.175Z,65.26
2022-07-29T02:01:46.712Z,64.01
2022-07-29T02:03:48.303Z,65.17
2022-07-29T02:05:49.813Z,65.39
2022-07-29T02:07:51.305Z,65.67
2022-07-29T02:09:52.814Z,64.59
2022-07-29T02:11:54.787Z,64.01
2022-07-29T02:13:56.312Z,65.01
2022-07-29T02:15:58.056Z,65.42
2022-07-29T02:18:03.033Z,64.65
2022-07-29T02:20:04.985Z,64.71
2022-07-29T02:22:06.516Z,64.68
2022-07-29T02:24:08.037Z,66.23
2022-07-29T02:26:09.562Z,66.69
2022-07-29T02:28:11.034Z,65.50
2022-07-29T02:30:12.742Z,66.19
2022-07-29T02:32:14.354Z,67.71
2022-07-29T02:34:17.660Z,66.33
2022-07-29T02:36:22.779Z,68.54
2022-07-29T02:38:24.317Z,67.69
2022-07-29T02:40:25.810Z,67.76
2022-07-29T02:42:27.616Z,67.30
2022-07-29T02:44:34.239Z,67.28
2022-07-29T02:46:36.847Z,68.27
2022-07-29T02:48:38.878Z,68.39
2022-07-29T02:50:43.540Z,67.23
2022-07-29T02:52:45.543Z,68.16
2022-07-29T02:54:47.537Z,69.56
2022-07-29T02:56:49.153Z,69.17
2022-07-29T02:58:51.755Z,70.16
2022-07-29T03:00:53.249Z,69.15
2022-07-29T03:02:54.972Z,68.12
2022-07-29T03:04:56.567Z,69.34
2022-07-29T03:07:01.029Z,68.28
2022-07-29T03:09:02.537Z,69.65
2022-07-29T03:11:04.048Z,70.65
2022-07-29T03:13:05.592Z,70.42
2022-07-29T03:15:07.365Z,72.42
2022-07-29T03:17:09.818Z,71.81
2022-07-29T03:19:11.316Z,72.29
2022-07-29T03:21:12.849Z,72.09
2022-07-29T03:23:16.748Z,73.61
2022-07-29T03:25:18.749Z,76.11
2022-07-29T03:27:20.265Z,79.95
2022-07-29T03:29:21.748Z,81.65
2022-07-29T03:31:23.424Z,86.85
2022-07-29T03:33:24.995Z,88.31
2022-07-29T03:35:26.604Z,89.96
2022-07-29T03:37:28.195Z,89.32
2022-07-29T03:39:32.627Z,92.37
2022-07-29T03:41:34.303Z,88.53
2022-07-29T03:43:37.064Z,89.79
2022-07-29T03:45:38.614Z,90.64
2022-07-29T03:47:49.993Z,91.39
2022-07-29T03:49:53.243Z,92.93
2022-07-29T03:51:54.731Z,93.03
2022-07-29T03:53:56.341Z,91.32
2022-07-29T03:56:00.734Z,91.62
2022-07-29T03:58:02.227Z,91.23
2022-07-29T04:00:04.988Z,91.72
2022-07-29T04:02:06.611Z,91.09
2022-07-29T04:04:08.203Z,90.39
2022-07-29T04:06:09.712Z,91.95
2022-07-29T04:08:11.203Z,92.20
2022-07-29T04:10:12.877Z,91.99
2022-07-29T04:12:15.777Z,93.10
2022-07-29T04:14:17.745Z,93.14
2022-07-29T04:16:20.058Z,91.85
2022-07-29T04:18:21.635Z,92.82
2022-07-29T04:20:23.119Z,91.02
2022-07-29T04:22:24.622Z,92.78
2022-07-29T04:24:26.665Z,93.90
2022-07-29T04:26:28.142Z,93.90
2022-07-29T04:28:31.021Z,93.11
2022-07-29T04:30:33.052Z,92.67
2022-07-29T04:32:34.548Z,93.53
2022-07-29T04:34:36.067Z,93.45
2022-07-29T04:36:37.564Z,92.91
2022-07-29T04:38:39.199Z,91.50
2022-07-29T04:40:40.737Z,91.00
2022-07-29T04:42:46.508Z,91.67
2022-07-29T04:44:50.766Z,89.91
2022-07-29T04:46:53.432Z,88.79
2022-07-29T04:48:54.991Z,88.77
2022-07-29T04:50:56.724Z,87.28
2022-07-29T04:52:58.201Z,85.85
2022-07-29T04:54:59.683Z,86.50
2022-07-29T04:57:01.206Z,87.03
2022-07-29T04:59:02.735Z,85.74
2022-07-29T05:01:05.664Z,82.47
2022-07-29T05:03:07.487Z,80.34
2022-07-29T05:05:09.267Z,78.89
2022-07-29T05:07:10.816Z,77.29
2022-07-29T05:09:12.396Z,75.04
2022-07-29T05:11:18.136Z,73.56
2022-07-29T05:13:22.503Z,74.01
2022-07-29T05:15:24.034Z,73.15
2022-07-29T05:17:26.933Z,72.64
2022-07-29T05:19:28.472Z,71.17
2022-07-29T05:21:30.014Z,70.24
2022-07-29T05:23:31.554Z,70.03
2022-07-29T05:25:42.931Z,69.27
2022-07-29T05:27:46.331Z,70.46
2022-07-29T05:29:52.502Z,70.85
2022-07-29T05:31:53.999Z,73.40
2022-07-29T05:33:56.862Z,74.88
2022-07-29T05:36:00.573Z,73.91
2022-07-29T05:38:02.659Z,73.79
2022-07-29T05:40:04.668Z,78.11
2022-07-29T05:42:08.716Z,76.47
2022-07-29T05:44:10.235Z,74.14
2022-07-29T05:46:11.902Z,74.16
2022-07-29T05:48:13.394Z,74.08
2022-07-29T05:50:16.295Z,74.51
2022-07-29T05:52:17.815Z,74.65
2022-07-29T05:54:19.480Z,74.67
2022-07-29T05:56:21.045Z,75.96
2022-07-29T05:58:22.526Z,75.88
2022-07-29T06:00:24.119Z,74.76
2022-07-29T06:02:25.640Z,73.71
2022-07-29T06:04:27.283Z,72.85
2022-07-29T06:06:30.168Z,74.81
2022-07-29T06:08:31.659Z,75.34
2022-07-29T06:10:33.197Z,75.75
2022-07-29T06:12:35.006Z,72.79
2022-07-29T06:14:36.504Z,73.51
2022-07-29T06:16:38.159Z,71.90
2022-07-29T06:18:39.740Z,70.72
2022-07-29T06:20:41.249Z,71.04
2022-07-29T06:22:44.123Z,73.27
2022-07-29T06:24:45.647Z,70.41
2022-07-29T06:26:47.139Z,71.61
2022-07-29T06:28:48.853Z,71.50
2022-07-29T06:30:52.099Z,69.75
2022-07-29T06:32:53.666Z,67.89
2022-07-29T06:35:11.892Z,66.02
2022-07-29T06:37:16.672Z,61.41
2022-07-29T06:39:19.618Z,60.63
2022-07-29T06:41:21.166Z,59.94
2022-07-29T06:43:22.845Z,58.87
2022-07-29T06:45:24.345Z,58.48
2022-07-29T06:47:29.928Z,58.03
2022-07-29T06:49:31.464Z,56.97
2022-07-29T06:51:33.103Z,56.15
2022-07-29T06:53:34.779Z,56.74
2022-07-29T06:55:37.728Z,55.60
2022-07-29T06:57:39.365Z,55.07
2022-07-29T06:59:40.866Z,54.51
2022-07-29T07:01:43.406Z,54.46
2022-07-29T07:03:45.211Z,54.15
2022-07-29T07:05:46.760Z,53.04
2022-07-29T07:07:48.245Z,52.61
2022-07-29T07:09:49.904Z,52.52
2022-07-29T07:11:52.803Z,52.26
2022-07-29T07:13:57.023Z,51.83
2022-07-29T07:16:01.307Z,51.60
2022-07-29T07:18:02.846Z,51.01
2022-07-29T07:20:05.305Z,51.45
2022-07-29T07:22:06.804Z,51.19
2022-07-29T07:24:08.405Z,51.22
2022-07-29T07:26:09.882Z,50.84
2022-07-29T07:28:12.781Z,50.43
2022-07-29T07:30:14.407Z,50.42
2022-07-29T07:32:15.947Z,49.97
2022-07-29T07:34:17.883Z,50.14
2022-07-29T07:36:29.967Z,50.30
2022-07-29T07:38:31.444Z,49.96
2022-07-29T07:40:32.966Z,50.53
2022-07-29T07:42:34.470Z,50.56
2022-07-29T07:44:57.270Z,50.46
2022-07-29T07:46:58.843Z,50.33
2022-07-29T07:49:05.378Z,50.14
2022-07-29T07:51:07.189Z,49.81
2022-07-29T07:53:08.660Z,49.85
2022-07-29T07:55:10.144Z,49.60
2022-07-29T07:57:11.764Z,49.00
2022-07-29T07:59:13.261Z,48.32
2022-07-29T08:01:16.164Z,48.95
2022-07-29T08:03:17.809Z,48.92
2022-07-29T08:05:19.314Z,48.50
2022-07-29T08:07:20.830Z,49.13
2022-07-29T08:09:29.171Z,49.37
2022-07-29T08:11:31.551Z,48.76
2022-07-29T08:13:37.680Z,48.59
2022-07-29T08:15:39.763Z,48.75
2022-07-29T08:17:42.636Z,48.69
2022-07-29T08:19:44.771Z,48.27
2022-07-29T08:21:47.151Z,47.30
2022-07-29T08:23:52.720Z,47.24
2022-07-29T08:25:55.989Z,48.44
2022-07-29T08:27:57.679Z,48.25
2022-07-29T08:29:59.193Z,47.68
2022-07-29T08:32:00.794Z,47.39
2022-07-29T08:34:03.885Z,47.78
2022-07-29T08:36:05.805Z,47.44
2022-07-29T08:38:07.302Z,46.95
2022-07-29T08:40:09.265Z,46.32
2022-07-29T08:42:11.391Z,46.15
2022-07-29T08:44:12.937Z,45.29
2022-07-29T08:46:14.485Z,44.33
2022-07-29T08:48:16.764Z,44.52
2022-07-29T08:50:19.632Z,44.61
2022-07-29T08:52:21.138Z,44.58
2022-07-29T08:54:22.648Z,44.32
2022-07-29T08:56:24.140Z,43.46
2022-07-29T08:58:25.994Z,43.19
2022-07-29T09:00:27.654Z,43.26
2022-07-29T09:02:29.597Z,41.70
2022-07-29T09:04:31.364Z,41.11
2022-07-29T09:06:35.502Z,40.75
2022-07-29T09:08:36.996Z,40.56
2022-07-29T09:10:38.548Z,40.29
2022-07-29T09:12:40.217Z,39.72
2022-07-29T09:14:41.709Z,39.80
2022-07-29T09:17:00.902Z,39.88
2022-07-29T09:19:03.019Z,39.79
2022-07-29T09:21:04.769Z,39.85
2022-07-29T09:23:09.532Z,39.71
2022-07-29T09:25:13.797Z,39.32
2022-07-29T09:27:21.905Z,39.16
2022-07-29T09:29:24.034Z,38.56
2022-07-29T09:31:29.376Z,38.63
2022-07-29T09:33:32.367Z,38.05
2022-07-29T09:35:33.864Z,38.51
2022-07-29T09:37:35.338Z,38.58
2022-07-29T09:39:38.876Z,38.09
2022-07-29T09:41:47.036Z,39.01
2022-07-29T09:43:54.313Z,38.23
2022-07-29T09:45:55.932Z,37.95
2022-07-29T09:47:57.585Z,37.90
2022-07-29T09:49:59.510Z,37.08
2022-07-29T09:52:01.833Z,38.06
2022-07-29T09:54:03.547Z,37.95
2022-07-29T09:56:06.539Z,37.25
2022-07-29T09:58:17.312Z,37.51
2022-07-29T10:00:19.624Z,38.09
2022-07-29T10:02:23.750Z,37.68
2022-07-29T10:04:26.171Z,37.21
2022-07-29T10:06:27.710Z,36.74
2022-07-29T10:08:29.201Z,36.28
2022-07-29T10:10:31.273Z,36.53
2022-07-29T10:12:34.130Z,37.39
2022-07-29T10:14:35.885Z,37.08
2022-07-29T10:16:37.447Z,36.85
2022-07-29T10:18:39.058Z,36.81
2022-07-29T10:20:40.959Z,36.91
2022-07-29T10:22:57.769Z,36.65
2022-07-29T10:24:59.250Z,37.63
2022-07-29T10:27:01.572Z,37.50
2022-07-29T10:29:04.411Z,36.89
2022-07-29T10:31:06.550Z,36.81
2022-07-29T10:33:25.781Z,36.32
2022-07-29T10:35:33.424Z,36.66
2022-07-29T10:37:38.990Z,36.92
2022-07-29T10:39:51.326Z,37.25
2022-07-29T10:41:57.174Z,36.91
2022-07-29T10:43:59.452Z,37.04
2022-07-29T10:46:02.655Z,36.87
2022-07-29T10:48:04.643Z,36.80
2022-07-29T10:50:11.705Z,36.55
2022-07-29T10:52:16.790Z,36.07
2022-07-29T10:54:19.097Z,35.82
2022-07-29T10:56:25.370Z,34.60
2022-07-29T10:58:27.089Z,34.75
2022-07-29T11:00:30.861Z,36.13
2022-07-29T11:02:44.539Z,34.86
2022-07-29T11:05:01.514Z,34.81
2022-07-29T11:07:09.129Z,35.27
2022-07-29T11:09:17.210Z,35.71
2022-07-29T11:11:36.910Z,35.70
2022-07-29T11:13:52.323Z,35.13
2022-07-29T11:15:54.393Z,34.21
2022-07-29T11:18:17.555Z,33.95
2022-07-29T11:20:34.317Z,33.60
2022-07-29T11:22:43.132Z,34.53
2022-07-29T11:24:50.155Z,35.21
2022-07-29T11:27:06.723Z,35.59
2022-07-29T11:29:17.387Z,35.96
2022-07-29T11:31:20.417Z,35.07
2022-07-29T11:33:54.293Z,35.02
2022-07-29T11:36:04.942Z,35.06
2022-07-29T11:38:28.616Z,35.36
2022-07-29T11:40:30.572Z,35.67
2022-07-29T11:42:41.742Z,35.97
2022-07-29T11:44:56.069Z,35.67
2022-07-29T11:46:57.565Z,34.46
2022-07-29T11:48:59.351Z,34.71
2022-07-29T11:51:00.946Z,34.55
2022-07-29T11:53:03.267Z,34.58
2022-07-29T11:55:12.260Z,34.80
2022-07-29T11:57:13.823Z,34.66
2022-07-29T11:59:17.743Z,34.68
2022-07-29T12:01:19.342Z,34.36
2022-07-29T12:03:33.604Z,34.26
2022-07-29T12:05:39.215Z,34.55
2022-07-29T12:07:49.919Z,34.12
2022-07-29T12:09:52.196Z,34.41
2022-07-29T12:12:01.968Z,33.59
2022-07-29T12:14:06.516Z,33.59
2022-07-29T12:16:14.543Z,33.65
2022-07-29T12:18:19.916Z,33.32
2022-07-29T12:20:30.381Z,33.86
2022-07-29T12:22:33.418Z,33.99
2022-07-29T12:24:43.380Z,33.84
2022-07-29T12:26:50.046Z,33.74
2022-07-29T12:28:52.929Z,33.43
2022-07-29T12:30:56.256Z,33.10
2022-07-29T12:32:57.856Z,32.46
2022-07-29T12:34:59.349Z,32.53
2022-07-29T12:37:00.844Z,32.23
2022-07-29T12:39:02.602Z,32.28
2022-07-29T12:41:04.494Z,32.52
2022-07-29T12:43:07.093Z,31.44
2022-07-29T12:45:10.188Z,30.81
2022-07-29T12:47:11.686Z,31.32
2022-07-29T12:49:17.839Z,31.99
2022-07-29T12:51:19.477Z,32.23
2022-07-29T12:53:20.970Z,31.84
2022-07-29T12:55:41.664Z,31.75
2022-07-29T12:57:46.611Z,32.00
2022-07-29T12:59:59.436Z,32.17
2022-07-29T13:02:02.447Z,32.62
2022-07-29T13:04:03.992Z,32.56
2022-07-29T13:06:05.596Z,32.86
2022-07-29T13:08:20.242Z,32.62
2022-07-29T13:10:23.959Z,32.96
2022-07-29T13:12:26.244Z,32.83
2022-07-29T13:14:31.908Z,32.42
2022-07-29T13:16:33.500Z,31.69
2022-07-29T13:18:36.463Z,30.39
2022-07-29T13:20:38.018Z,29.36
2022-07-29T13:22:39.629Z,28.05
2022-07-29T13:24:48.245Z,28.26
2022-07-29T13:26:49.734Z,28.05
2022-07-29T13:28:51.217Z,27.14
2022-07-29T13:30:52.723Z,27.22
2022-07-29T13:32:54.324Z,27.86
2022-07-29T13:34:57.394Z,27.31
2022-07-29T13:36:58.874Z,26.19
2022-07-29T13:39:00.389Z,25.07
2022-07-29T13:41:02.066Z,24.46
2022-07-29T13:43:03.577Z,24.73
2022-07-29T13:45:06.157Z,25.08
2022-07-29T13:47:07.737Z,24.61
2022-07-29T13:49:09.284Z,26.20
2022-07-29T13:51:12.212Z,28.07
2022-07-29T13:53:17.765Z,26.88
2022-07-29T13:55:19.769Z,27.26
2022-07-29T13:57:21.305Z,26.74
2022-07-29T13:59:22.835Z,25.60
2022-07-29T14:01:24.378Z,24.95
2022-07-29T14:03:25.894Z,23.42
2022-07-29T14:05:27.428Z,23.84
2022-07-29T14:07:30.367Z,22.41
2022-07-29T14:09:41.499Z,22.02
2022-07-29T14:11:43.382Z,22.12
2022-07-29T14:13:44.892Z,21.56
2022-07-29T14:15:46.466Z,23.23
2022-07-29T14:17:47.962Z,23.17
2022-07-29T14:19:49.477Z,21.49
2022-07-29T14:21:51.088Z,21.62
2022-07-29T14:23:54.309Z,21.88
2022-07-29T14:25:55.800Z,20.58
2022-07-29T14:27:58.507Z,23.58
2022-07-29T14:30:00.209Z,25.42
2022-07-29T14:32:02.350Z,27.25
2022-07-29T14:34:04.106Z,28.03
2022-07-29T14:36:06.207Z,25.42
2022-07-29T14:38:07.700Z,25.00
2022-07-29T14:40:11.222Z,27.52
2022-07-29T14:42:13.130Z,28.81
2022-07-29T14:44:14.692Z,29.70
2022-07-29T14:46:16.570Z,29.73
2022-07-29T14:48:18.323Z,29.92
2022-07-29T14:50:27.611Z,28.45
2022-07-29T14:52:33.371Z,29.11
2022-07-29T14:54:34.868Z,27.45
2022-07-29T14:56:37.920Z,23.65
2022-07-29T14:58:50.160Z,21.55
2022-07-29T15:00:53.548Z,22.83
2022-07-29T15:03:02.883Z,26.35
2022-07-29T15:05:04.881Z,27.60
2022-07-29T15:07:06.517Z,28.40
2022-07-29T15:09:08.025Z,28.98
2022-07-29T15:11:09.492Z,26.09
2022-07-29T15:13:12.384Z,24.79
2022-07-29T15:15:13.887Z,24.38
2022-07-29T15:17:15.358Z,23.79
2022-07-29T15:19:16.866Z,25.70
2022-07-29T15:21:18.403Z,26.27
2022-07-29T15:23:19.889Z,26.95
2022-07-29T15:25:21.677Z,22.99
2022-07-29T15:27:23.173Z,22.37
2022-07-29T15:29:26.039Z,20.78
2022-07-29T15:31:27.596Z,19.75
2022-07-29T15:33:29.121Z,22.35
2022-07-29T15:35:30.714Z,21.46
2022-07-29T15:37:49.277Z,20.13
2022-07-29T15:39:51.258Z,18.45
2022-07-29T15:41:52.743Z,17.91
2022-07-29T15:43:54.265Z,17.88
2022-07-29T15:45:57.279Z,19.90
2022-07-29T15:47:58.822Z,21.29
2022-07-29T15:50:00.312Z,22.83
2022-07-29T15:52:02.579Z,24.27
2022-07-29T15:54:04.447Z,24.76
2022-07-29T15:56:05.938Z,24.98
2022-07-29T15:58:07.563Z,23.85
2022-07-29T16:00:09.592Z,23.79
2022-07-29T16:02:12.476Z,26.55
2022-07-29T16:04:14.025Z,27.07
2022-07-29T16:06:15.564Z,27.31
2022-07-29T16:08:17.795Z,27.94
2022-07-29T16:10:19.408Z,28.75
2022-07-29T16:12:20.908Z,29.31
2022-07-29T16:14:22.443Z,29.14
2022-07-29T16:16:24.041Z,29.97
2022-07-29T16:18:29.961Z,29.57
2022-07-29T16:20:32.103Z,29.05
2022-07-29T16:22:34.463Z,27.44
2022-07-29T16:24:35.958Z,26.89
2022-07-29T16:26:37.451Z,24.81
2022-07-29T16:28:38.997Z,25.59
2022-07-29T16:30:40.480Z,23.98
2022-07-29T16:32:41.962Z,23.56
2022-07-29T16:34:44.974Z,22.36
2022-07-29T16:36:48.010Z,22.06
2022-07-29T16:38:49.866Z,22.62
2022-07-29T16:40:51.405Z,23.31
2022-07-29T16:42:52.883Z,24.96
2022-07-29T16:44:54.357Z,22.96
2022-07-29T16:46:58.816Z,22.36
2022-07-29T16:49:01.180Z,21.28
2022-07-29T16:51:04.163Z,21.32
2022-07-29T16:53:13.611Z,20.28
2022-07-29T16:55:15.125Z,21.38
2022-07-29T16:57:16.629Z,21.06
2022-07-29T16:59:18.252Z,22.00
2022-07-29T17:01:19.805Z,22.25
2022-07-29T17:03:21.382Z,21.70
2022-07-29T17:05:22.893Z,24.10
2022-07-29T17:07:25.770Z,26.33
2022-07-29T17:09:27.279Z,27.75
2022-07-29T17:11:52.658Z,28.17
2022-07-29T17:13:50.266Z,26.33
2022-07-29T17:15:51.800Z,23.54
2022-07-29T17:17:56.579Z,23.23
2022-07-29T17:19:58.389Z,22.90
2022-07-29T17:22:09.240Z,22.31
2022-07-29T17:24:14.466Z,22.55
2022-07-29T17:26:16.077Z,23.80
2022-07-29T17:28:17.662Z,24.09
2022-07-29T17:30:19.160Z,24.18
2022-07-29T17:32:20.702Z,24.51
2022-07-29T17:34:22.255Z,23.91
2022-07-29T17:36:23.742Z,24.86
2022-07-29T17:38:25.234Z,24.94
2022-07-29T17:40:28.255Z,24.73
2022-07-29T17:42:29.751Z,25.46
2022-07-29T17:44:31.544Z,27.67
2022-07-29T17:46:33.965Z,28.12
2022-07-29T17:48:35.509Z,25.91
2022-07-29T17:50:37.189Z,24.68
2022-07-29T17:52:38.793Z,24.96
2022-07-29T17:54:40.354Z,24.39
2022-07-29T17:56:43.228Z,24.07
2022-07-29T17:58:44.816Z,25.64
2022-07-29T18:00:46.368Z,25.16
2022-07-29T18:02:47.973Z,25.45
2022-07-29T18:04:50.680Z,25.03
2022-07-29T18:06:52.402Z,24.50
2022-07-29T18:08:53.911Z,24.91
2022-07-29T18:10:55.399Z,25.30
2022-07-29T18:12:58.338Z,27.57
2022-07-29T18:14:59.848Z,26.80
2022-07-29T18:17:01.835Z,26.13
2022-07-29T18:19:03.481Z,28.33
2022-07-29T18:21:05.043Z,28.03
2022-07-29T18:23:06.627Z,28.27
2022-07-29T18:25:08.632Z,28.74
2022-07-29T18:27:10.367Z,30.15
2022-07-29T18:29:13.219Z,30.89
2022-07-29T18:31:14.740Z,31.58
2022-07-29T18:33:21.221Z,32.31
2022-07-29T18:35:23.471Z,31.82
2022-07-29T18:38:01.498Z,30.61
2022-07-29T18:39:46.487Z,31.99
2022-07-29T18:41:50.469Z,32.54
2022-07-29T18:43:52.335Z,32.33
2022-07-29T18:45:57.505Z,32.74
2022-07-29T18:47:58.988Z,32.88
2022-07-29T18:50:00.496Z,33.00
2022-07-29T18:52:02.060Z,33.16
2022-07-29T18:54:03.816Z,32.66
2022-07-29T18:56:05.395Z,32.04
2022-07-29T18:58:06.939Z,32.24
2022-07-29T19:00:09.077Z,33.14
2022-07-29T19:02:15.885Z,33.72
2022-07-29T19:04:17.560Z,34.12
2022-07-29T19:06:22.646Z,34.69
2022-07-29T19:08:26.813Z,34.73
2022-07-29T19:10:28.493Z,35.16
2022-07-29T19:12:30.073Z,35.61
2022-07-29T19:14:31.677Z,35.78
2022-07-29T19:16:33.243Z,36.54
2022-07-29T19:18:36.125Z,37.14
2022-07-29T19:20:37.607Z,37.26
2022-07-29T19:22:39.145Z,36.88
2022-07-29T19:24:40.697Z,36.98
2022-07-29T19:26:42.217Z,37.57
2022-07-29T19:28:43.728Z,37.49
2022-07-29T19:30:50.674Z,37.90
2022-07-29T19:32:52.204Z,38.10
2022-07-29T19:34:55.202Z,38.37
2022-07-29T19:36:56.885Z,38.57
2022-07-29T19:38:58.634Z,39.07
2022-07-29T19:41:00.130Z,39.17
2022-07-29T19:43:01.713Z,38.83
2022-07-29T19:45:03.384Z,38.99
2022-07-29T19:47:04.962Z,39.30
2022-07-29T19:49:06.617Z,39.57
2022-07-29T19:51:09.669Z,39.73
2022-07-29T19:53:11.152Z,40.11
2022-07-29T19:55:12.665Z,40.14
2022-07-29T19:57:14.208Z,40.62
2022-07-29T19:59:15.814Z,40.72
2022-07-29T20:01:17.508Z,40.49
2022-07-29T20:03:19.080Z,40.50
2022-07-29T20:05:20.624Z,41.02
2022-07-29T20:07:23.494Z,41.14
2022-07-29T20:09:25.025Z,40.53
2022-07-29T20:11:26.540Z,40.79
2022-07-29T20:13:28.080Z,40.95
2022-07-29T20:15:29.615Z,41.42
2022-07-29T20:17:31.101Z,41.96
2022-07-29T20:19:32.614Z,41.61
2022-07-29T20:21:34.207Z,41.81
2022-07-29T20:23:37.087Z,42.07
2022-07-29T20:25:38.585Z,42.30
2022-07-29T20:27:40.101Z,42.52
2022-07-29T20:29:41.633Z,42.13
2022-07-29T20:31:43.320Z,42.33
2022-07-29T20:33:44.812Z,42.74
2022-07-29T20:35:46.343Z,43.19
2022-07-29T20:37:52.475Z,43.13
2022-07-29T20:39:58.787Z,43.15
2022-07-29T20:42:00.536Z,43.62
2022-07-29T20:44:02.211Z,44.30
2022-07-29T20:46:03.861Z,44.11
2022-07-29T20:48:05.525Z,44.00
2022-07-29T20:50:10.173Z,44.20
2022-07-29T20:52:11.776Z,44.25
2022-07-29T20:54:13.262Z,44.68
2022-07-29T20:56:16.205Z,44.69
2022-07-29T20:58:17.702Z,45.58
2022-07-29T21:00:19.273Z,45.49
2022-07-29T21:02:20.826Z,45.92
2022-07-29T21:04:22.361Z,46.06
2022-07-29T21:06:32.068Z,45.75
2022-07-29T21:08:33.586Z,45.54
2022-07-29T21:10:35.137Z,45.48
2022-07-29T21:12:37.994Z,46.17
2022-07-29T21:14:39.530Z,46.37
2022-07-29T21:16:41.084Z,46.08
2022-07-29T21:18:42.612Z,46.19
2022-07-29T21:20:44.144Z,46.04
2022-07-29T21:22:45.646Z,46.28
2022-07-29T21:24:47.438Z,46.72
2022-07-29T21:27:04.944Z,47.12
2022-07-29T21:29:11.874Z,47.25
2022-07-29T21:31:13.877Z,47.39
2022-07-29T21:33:15.448Z,47.14
2022-07-29T21:36:02.030Z,47.68
2022-07-29T21:37:38.503Z,48.11
2022-07-29T21:39:40.060Z,48.45
2022-07-29T21:41:41.542Z,47.65
2022-07-29T21:43:43.034Z,47.44
2022-07-29T21:45:46.012Z,47.74
2022-07-29T21:47:47.517Z,47.86
2022-07-29T21:49:49.773Z,47.32
2022-07-29T21:51:52.566Z,48.07
2022-07-29T21:53:54.133Z,48.30
2022-07-29T21:55:56.535Z,48.43
2022-07-29T21:57:58.513Z,48.48
2022-07-29T22:00:02.932Z,49.04
2022-07-29T22:02:06.184Z,48.83
2022-07-29T22:04:07.736Z,48.88
2022-07-29T22:06:11.205Z,49.28
2022-07-29T22:08:18.320Z,49.28
2022-07-29T22:10:20.012Z,49.35
2022-07-29T22:12:21.511Z,49.99
2022-07-29T22:14:23.111Z,50.42
2022-07-29T22:16:24.879Z,50.41
2022-07-29T22:18:27.782Z,50.30
2022-07-29T22:20:29.375Z,50.64
2022-07-29T22:22:30.896Z,50.22
2022-07-29T22:24:32.395Z,49.90
2022-07-29T22:26:34.025Z,49.63
2022-07-29T22:28:35.576Z,49.71
2022-07-29T22:30:37.304Z,49.61
2022-07-29T22:32:39.023Z,49.44
2022-07-29T22:34:41.888Z,49.93
2022-07-29T22:36:43.376Z,49.73
2022-07-29T22:38:47.237Z,49.95
2022-07-29T22:40:50.870Z,49.97
2022-07-29T22:42:52.484Z,50.23
2022-07-29T22:44:54.065Z,50.23
2022-07-29T22:46:55.588Z,50.24
2022-07-29T22:48:57.117Z,50.30
2022-07-29T22:51:00.665Z,50.62
2022-07-29T22:53:02.168Z,49.95
2022-07-29T22:55:03.843Z,50.13
2022-07-29T22:57:05.374Z,50.46
2022-07-29T22:59:06.918Z,50.52
2022-07-29T23:01:08.492Z,50.93
2022-07-29T23:03:10.067Z,50.75
2022-07-29T23:05:11.645Z,50.34
2022-07-29T23:07:14.597Z,50.05
2022-07-29T23:09:16.134Z,50.14
2022-07-29T23:11:17.726Z,50.01
2022-07-29T23:13:19.217Z,50.63
2022-07-29T23:15:20.876Z,50.46
2022-07-29T23:17:22.491Z,50.35
2022-07-29T23:19:24.057Z,50.10
2022-07-29T23:21:25.601Z,50.30
2022-07-29T23:23:32.305Z,50.24
2022-07-29T23:25:34.160Z,50.79
2022-07-29T23:27:35.674Z,51.00
2022-07-29T23:29:37.232Z,51.46
2022-07-29T23:31:41.840Z,51.62
2022-07-29T23:33:49.680Z,52.56
2022-07-29T23:35:51.185Z,52.18
2022-07-29T23:37:52.934Z,52.97
2022-07-29T23:39:55.997Z,52.46
2022-07-29T23:41:57.832Z,54.15
2022-07-29T23:43:59.316Z,54.04
2022-07-29T23:46:00.897Z,54.35
2022-07-29T23:48:03.045Z,54.00
2022-07-29T23:50:04.813Z,55.58
2022-07-29T23:52:06.436Z,54.89
2022-07-29T23:54:07.954Z,55.09
2022-07-29T23:56:10.823Z,56.61
2022-07-29T23:58:12.318Z,57.14
